Time;durP1;ratioP1;P1;durP2;ratioP2;P2;SDS_P1;SDS_P2;PMS_P1;PMS_P2;Temp;Humidity;BMP_temperature;BMP_pressure;BME280_temperature;BME280_humidity;BME280_pressure;Samples;Min_cycle;Max_cycle;Signal;HPM_P1;HPM_P2
2021/08/17 00:01:01;;;;;;;4.60;3.40;;;;;;;16.96;52.73;96342.94;5115930;28;20019;-61
2021/08/17 00:03:27;;;;;;;6.03;2.78;;;;;;;16.99;52.98;96342.72;5115945;28;20019;-62
2021/08/17 00:05:53;;;;;;;8.65;3.20;;;;;;;17.05;52.89;96342.31;5115847;28;20012;-61
2021/08/17 00:08:18;;;;;;;3.90;2.80;;;;;;;17.02;53.19;96343.38;5115779;28;20483;-63
2021/08/17 00:10:44;;;;;;;3.90;2.72;;;;;;;16.95;52.97;96346.53;5115622;28;20043;-62
2021/08/17 00:13:09;;;;;;;4.68;2.75;;;;;;;16.95;53.11;96343.88;5115838;28;20028;-60
2021/08/17 00:15:35;;;;;;;5.85;2.67;;;;;;;16.91;52.95;96345.88;5115720;28;20106;-62
2021/08/17 00:18:02;;;;;;;3.75;2.65;;;;;;;16.85;52.88;96341.00;5115616;28;20039;-60
2021/08/17 00:20:27;;;;;;;3.40;2.58;;;;;;;16.82;54.14;96336.78;5115693;28;20059;-63
2021/08/17 00:22:53;;;;;;;5.57;3.40;;;;;;;16.74;53.94;96341.72;5115572;28;20515;-61
2021/08/17 00:25:19;;;;;;;4.95;2.88;;;;;;;16.72;53.80;96339.19;5115509;28;20020;-61
2021/08/17 00:27:45;;;;;;;5.80;2.67;;;;;;;16.54;54.27;96333.31;5115375;28;20054;-63
2021/08/17 00:30:11;;;;;;;5.32;2.90;;;;;;;16.53;54.48;96340.38;5115359;28;20024;-61
2021/08/17 00:32:37;;;;;;;5.90;2.90;;;;;;;16.58;54.11;96339.25;5115369;28;20028;-61
2021/08/17 00:35:03;;;;;;;5.80;2.78;;;;;;;16.53;53.74;96339.56;5115280;28;20023;-63
2021/08/17 00:37:30;;;;;;;3.95;2.95;;;;;;;16.51;52.97;96337.03;5115255;28;20109;-61
2021/08/17 00:39:55;;;;;;;6.10;3.08;;;;;;;16.51;53.38;96341.44;5115358;28;20020;-62
2021/08/17 00:42:22;;;;;;;4.00;3.00;;;;;;;16.47;54.41;96335.53;5115013;28;20093;-61
2021/08/17 00:44:49;;;;;;;4.88;3.00;;;;;;;16.38;54.75;96344.03;5115078;28;20024;-61
2021/08/17 00:47:17;;;;;;;4.78;2.58;;;;;;;16.38;54.38;96341.41;5115081;28;20023;-62
2021/08/17 00:49:46;;;;;;;3.92;2.42;;;;;;;16.34;54.76;96346.03;5097248;28;20116;-62
2021/08/17 00:52:14;;;;;;;4.47;2.92;;;;;;;16.34;54.09;96342.56;5114850;28;20023;-63
2021/08/17 00:54:42;;;;;;;3.78;2.63;;;;;;;16.33;54.53;96340.84;5114894;28;20058;-62
2021/08/17 00:57:12;;;;;;;3.42;2.42;;;;;;;16.29;54.40;96335.75;5114824;28;20551;-62
2021/08/17 00:59:38;;;;;;;3.75;2.88;;;;;;;16.23;55.02;96333.53;5114743;28;20031;-64
2021/08/17 01:02:04;;;;;;;4.75;2.90;;;;;;;16.17;55.02;96326.84;5114825;28;20028;-63
2021/08/17 01:04:32;;;;;;;6.25;2.92;;;;;;;16.16;54.46;96330.44;5114639;28;20091;-62
2021/08/17 01:06:58;;;;;;;4.43;2.83;;;;;;;16.13;53.71;96324.50;5096379;28;20028;-60
2021/08/17 01:09:23;;;;;;;4.18;3.00;;;;;;;16.05;55.07;96319.72;5113692;28;20075;-64
2021/08/17 01:11:49;;;;;;;7.53;3.13;;;;;;;16.01;54.96;96316.44;5114310;28;20500;-63
2021/08/17 01:14:18;;;;;;;3.60;2.50;;;;;;;16.00;54.86;96312.09;5114692;28;20028;-61
2021/08/17 01:16:43;;;;;;;5.30;3.17;;;;;;;15.97;55.39;96316.72;5096427;28;20020;-63
2021/08/17 01:19:10;;;;;;;4.53;2.65;;;;;;;15.94;55.12;96312.47;5114404;28;20395;-63
2021/08/17 01:21:36;;;;;;;4.35;2.90;;;;;;;15.98;54.22;96313.97;5114417;28;20012;-62
2021/08/17 01:24:02;;;;;;;4.32;2.97;;;;;;;15.99;54.47;96314.84;5114421;28;20028;-63
2021/08/17 01:26:27;;;;;;;4.82;2.95;;;;;;;15.95;54.38;96308.88;5114354;28;20370;-62
2021/08/17 01:28:53;;;;;;;3.40;2.22;;;;;;;15.92;54.41;96306.41;5114187;28;20027;-63
2021/08/17 01:31:18;;;;;;;7.40;2.65;;;;;;;15.89;54.24;96307.47;5114231;28;20024;-63
2021/08/17 01:33:44;;;;;;;5.90;2.63;;;;;;;15.91;54.13;96305.59;5114206;28;20106;-63
2021/08/17 01:36:09;;;;;;;6.10;2.60;;;;;;;15.90;54.45;96308.31;5114287;28;20029;-62
2021/08/17 01:38:46;;;;;;;4.78;2.47;;;;;;;15.85;54.44;96307.75;5114204;28;20020;-62
2021/08/17 01:41:11;;;;;;;4.32;2.35;;;;;;;15.83;54.94;96301.75;5113989;28;20043;-63
2021/08/17 01:43:37;;;;;;;4.85;2.97;;;;;;;15.77;55.46;96305.59;5114057;28;20041;-61
2021/08/17 01:46:04;;;;;;;5.28;2.70;;;;;;;15.68;55.00;96303.56;5113946;28;20080;-62
2021/08/17 01:48:31;;;;;;;5.05;2.75;;;;;;;15.61;56.22;96306.56;5113911;28;20035;-64
2021/08/17 01:50:58;;;;;;;5.40;2.72;;;;;;;15.48;56.25;96300.38;5113712;28;20019;-64
2021/08/17 01:53:25;;;;;;;4.13;2.75;;;;;;;15.45;56.39;96301.41;5113740;28;20032;-63
2021/08/17 01:55:52;;;;;;;2.80;2.40;;;;;;;15.41;56.76;96298.09;5113772;28;20048;-63
2021/08/17 01:58:18;;;;;;;4.15;2.80;;;;;;;15.40;56.98;96296.41;5113754;28;20551;-61
2021/08/17 02:00:45;;;;;;;6.50;2.80;;;;;;;15.46;57.22;96295.19;5113771;28;20095;-63
2021/08/17 02:03:10;;;;;;;5.28;2.90;;;;;;;15.34;57.57;96290.66;5113682;28;20027;-63
2021/08/17 02:05:36;;;;;;;4.03;2.72;;;;;;;15.21;57.88;96295.84;5113639;28;20024;-61
2021/08/17 02:08:03;;;;;;;5.63;2.70;;;;;;;15.09;58.38;96286.91;5113517;28;20036;-60
2021/08/17 02:10:29;;;;;;;3.90;2.95;;;;;;;15.02;58.56;96286.44;5113358;28;20052;-63
2021/08/17 02:12:55;;;;;;;7.60;3.17;;;;;;;15.05;58.81;96285.41;5113622;28;20380;-63
2021/08/17 02:15:21;;;;;;;3.88;2.83;;;;;;;15.09;59.33;96286.91;5113502;28;20028;-60
2021/08/17 02:17:46;;;;;;;4.03;2.85;;;;;;;15.10;59.23;96283.31;5113449;28;20023;-63
2021/08/17 02:20:12;;;;;;;6.03;3.25;;;;;;;15.07;59.17;96287.00;5113585;28;20016;-60
2021/08/17 02:22:38;;;;;;;5.30;2.97;;;;;;;15.00;59.49;96281.25;5113317;28;20034;-63
2021/08/17 02:25:05;;;;;;;6.22;3.03;;;;;;;15.00;59.72;96280.41;5113571;28;20038;-62
2021/08/17 02:27:35;;;;;;;7.38;2.80;;;;;;;15.05;59.53;96283.59;5113394;28;20027;-60
2021/08/17 02:30:03;;;;;;;3.50;2.63;;;;;;;15.09;59.82;96279.84;5113398;28;20030;-61
2021/08/17 02:32:28;;;;;;;5.53;3.40;;;;;;;15.09;60.06;96282.50;5113338;28;20019;-61
2021/08/17 02:34:54;;;;;;;5.85;3.28;;;;;;;15.08;60.34;96277.31;5113460;28;20019;-61
2021/08/17 02:37:19;;;;;;;4.78;3.00;;;;;;;15.06;60.13;96281.81;5113350;28;20028;-60
2021/08/17 02:39:45;;;;;;;5.07;3.28;;;;;;;15.07;60.41;96279.09;5113237;28;20063;-62
2021/08/17 02:42:11;;;;;;;3.95;2.85;;;;;;;15.09;60.31;96276.38;5113378;28;20028;-62
2021/08/17 02:44:36;;;;;;;5.32;3.30;;;;;;;14.96;60.72;96273.63;5113231;28;20076;-61
2021/08/17 02:47:02;;;;;;;5.97;3.83;;;;;;;14.92;60.96;96278.22;5095150;28;20035;-61
2021/08/17 02:49:29;;;;;;;4.05;3.03;;;;;;;14.85;60.67;96280.38;5113142;28;20030;-63
2021/08/17 02:51:54;;;;;;;4.57;3.20;;;;;;;14.81;61.28;96275.38;5113082;28;20027;-61
2021/08/17 02:54:20;;;;;;;7.22;3.08;;;;;;;14.85;61.05;96276.91;5113213;28;20027;-63
2021/08/17 02:56:46;;;;;;;6.38;3.00;;;;;;;14.88;61.13;96282.84;5113213;28;20027;-63
2021/08/17 02:59:11;;;;;;;5.10;3.17;;;;;;;14.91;61.25;96279.16;5113244;28;20024;-60
2021/08/17 03:01:37;;;;;;;4.65;3.00;;;;;;;14.91;61.30;96285.25;5113173;28;20024;-61
2021/08/17 03:04:03;;;;;;;4.65;2.95;;;;;;;14.79;61.18;96283.38;5113065;28;20028;-61
2021/08/17 03:06:28;;;;;;;7.97;3.15;;;;;;;14.73;61.42;96289.81;5113093;28;20481;-63
2021/08/17 03:08:54;;;;;;;6.88;3.58;;;;;;;14.75;61.55;96290.56;5112900;28;20415;-62
2021/08/17 03:11:19;;;;;;;5.75;3.58;;;;;;;14.76;61.47;96288.78;5113058;28;20028;-62
2021/08/17 03:13:45;;;;;;;5.75;3.38;;;;;;;14.76;61.74;96286.16;5113128;28;20553;-61
2021/08/17 03:16:11;;;;;;;5.28;3.10;;;;;;;14.73;62.05;96292.47;5112988;28;20419;-61
2021/08/17 03:18:37;;;;;;;4.85;3.17;;;;;;;14.71;62.03;96290.84;5113002;28;20023;-62
2021/08/17 03:21:03;;;;;;;6.07;3.30;;;;;;;14.74;61.78;96291.50;5113102;28;20081;-62
2021/08/17 03:23:28;;;;;;;4.22;3.17;;;;;;;14.72;61.16;96292.56;5112868;28;20016;-63
2021/08/17 03:25:55;;;;;;;6.75;3.40;;;;;;;14.73;61.54;96296.88;5112918;28;20031;-61
2021/08/17 03:28:21;;;;;;;4.22;3.00;;;;;;;14.76;61.56;96291.44;5112806;28;20069;-62
2021/08/17 03:30:47;;;;;;;4.82;3.08;;;;;;;14.80;61.37;96292.97;5112870;28;20500;-62
2021/08/17 03:33:12;;;;;;;4.45;3.08;;;;;;;14.79;61.38;96299.19;5113790;28;20016;-61
2021/08/17 03:35:38;;;;;;;5.13;3.40;;;;;;;14.76;61.26;96283.53;5116451;28;20503;-61
2021/08/17 03:38:04;;;;;;;4.32;3.00;;;;;;;14.76;61.36;96287.03;5116361;28;20034;-63
2021/08/17 03:40:29;;;;;;;6.63;3.78;;;;;;;14.78;61.44;96295.69;5116398;28;20020;-60
2021/08/17 03:42:55;;;;;;;5.40;2.97;;;;;;;14.83;61.22;96286.66;5116418;28;20020;-60
2021/08/17 03:45:22;;;;;;;4.18;3.08;;;;;;;14.89;61.49;96287.16;5116376;28;20509;-61
2021/08/17 03:47:49;;;;;;;4.10;2.85;;;;;;;14.92;61.48;96286.13;5116265;28;20051;-62
2021/08/17 03:50:15;;;;;;;6.13;3.28;;;;;;;14.82;61.64;96282.34;5116061;28;20024;-63
2021/08/17 03:52:42;;;;;;;4.85;3.20;;;;;;;14.83;61.81;96279.63;5116113;28;20080;-60
2021/08/17 03:55:09;;;;;;;5.22;2.95;;;;;;;14.86;61.80;96276.81;5116184;28;20024;-63
2021/08/17 03:57:35;;;;;;;4.93;3.10;;;;;;;14.96;61.65;96282.34;5116060;28;20031;-61
2021/08/17 04:00:03;;;;;;;5.00;3.45;;;;;;;15.00;61.42;96289.16;5115962;28;20091;-63
2021/08/17 04:02:28;;;;;;;4.53;3.30;;;;;;;15.12;61.43;96282.31;5115920;28;20035;-63
2021/08/17 04:04:54;;;;;;;6.32;3.05;;;;;;;15.51;60.28;96282.56;5116029;28;20031;-63
2021/08/17 04:07:20;;;;;;;4.35;2.72;;;;;;;16.10;58.98;96287.78;5115980;28;20377;-61
2021/08/17 04:09:45;;;;;;;4.28;3.00;;;;;;;16.57;57.80;96285.59;5115610;28;20366;-64
2021/08/17 04:12:11;;;;;;;7.75;3.50;;;;;;;17.01;56.55;96288.00;5115703;28;20473;-60
2021/08/17 04:14:36;;;;;;;4.30;2.85;;;;;;;17.42;55.30;96288.75;5115737;28;20031;-64
2021/08/17 04:17:02;;;;;;;8.57;3.00;;;;;;;17.77;54.60;96280.13;5115620;28;20024;-63
2021/08/17 04:19:28;;;;;;;6.53;2.92;;;;;;;18.09;53.71;96284.03;5115524;28;20020;-62
2021/08/17 04:21:53;;;;;;;3.28;2.42;;;;;;;18.43;52.72;96280.78;5115663;28;20032;-62
2021/08/17 04:24:19;;;;;;;5.22;2.85;;;;;;;18.87;51.90;96280.19;5115499;28;20030;-64
2021/08/17 04:26:45;;;;;;;4.95;3.00;;;;;;;19.34;50.85;96282.81;5115478;28;20027;-62
2021/08/17 04:29:11;;;;;;;6.15;2.60;;;;;;;19.76;50.01;96282.22;5115472;28;20020;-61
2021/08/17 04:31:37;;;;;;;6.72;3.50;;;;;;;20.06;49.52;96287.88;5115422;28;20081;-63
2021/08/17 04:34:03;;;;;;;5.13;3.40;;;;;;;20.41;48.62;96284.13;5115248;28;20019;-63
2021/08/17 04:36:28;;;;;;;4.22;3.20;;;;;;;20.76;47.85;96282.19;5115222;28;20027;-61
2021/08/17 04:38:54;;;;;;;6.90;3.28;;;;;;;21.14;47.01;96287.94;5115309;28;20019;-62
2021/08/17 04:41:20;;;;;;;4.43;3.10;;;;;;;21.46;46.53;96284.31;5115292;28;20077;-61
2021/08/17 04:43:46;;;;;;;6.53;3.08;;;;;;;21.82;45.75;96283.91;5115005;28;20016;-62
2021/08/17 04:46:13;;;;;;;5.65;3.38;;;;;;;22.17;45.04;96286.25;5115070;28;20088;-63
2021/08/17 04:48:38;;;;;;;6.07;3.13;;;;;;;22.49;44.93;96287.84;5115089;28;20061;-61
2021/08/17 04:51:04;;;;;;;5.60;3.15;;;;;;;22.83;44.12;96271.44;5114908;28;20070;-61
2021/08/17 04:53:30;;;;;;;6.25;3.20;;;;;;;23.20;43.63;96287.63;5114943;28;20054;-61
2021/08/17 04:55:56;;;;;;;4.72;3.08;;;;;;;23.53;43.20;96288.16;5114973;28;20031;-63
2021/08/17 04:58:21;;;;;;;5.40;3.17;;;;;;;23.87;43.27;96288.56;5114855;28;20093;-61
2021/08/17 05:00:48;;;;;;;4.30;3.13;;;;;;;24.22;42.32;96290.50;5114794;28;20473;-62
2021/08/17 05:03:14;;;;;;;4.53;2.55;;;;;;;24.53;41.64;96286.63;5114775;28;20027;-62
2021/08/17 05:05:40;;;;;;;5.25;2.97;;;;;;;24.88;40.32;96281.44;5114776;28;20019;-62
2021/08/17 05:08:09;;;;;;;5.32;2.67;;;;;;;25.27;39.46;96287.41;5114793;28;20477;-62
2021/08/17 05:10:36;;;;;;;3.15;2.50;;;;;;;25.52;39.06;96290.25;5114371;28;20055;-62
2021/08/17 05:13:03;;;;;;;11.00;3.80;;;;;;;25.87;40.41;96285.75;5114539;28;20027;-61
2021/08/17 05:15:30;;;;;;;5.40;2.70;;;;;;;26.24;39.59;96287.19;5114781;28;20048;-63
2021/08/17 05:17:56;;;;;;;4.20;2.78;;;;;;;26.56;39.57;96284.78;5114469;28;20051;-62
2021/08/17 05:20:21;;;;;;;4.88;2.50;;;;;;;26.87;38.40;96283.28;5114467;28;20580;-63
2021/08/17 05:22:47;;;;;;;4.93;2.97;;;;;;;27.19;38.38;96288.81;5114328;28;20034;-62
2021/08/17 05:25:14;;;;;;;4.43;2.92;;;;;;;27.49;37.58;96289.13;5114268;28;20058;-64
2021/08/17 05:27:40;;;;;;;6.38;3.10;;;;;;;27.73;35.23;96290.94;5114371;28;20389;-62
2021/08/17 05:30:06;;;;;;;5.72;2.80;;;;;;;27.91;35.40;96295.22;5114197;28;20035;-62
2021/08/17 05:32:32;;;;;;;5.30;2.58;;;;;;;28.02;34.38;96285.09;5114258;28;20023;-62
2021/08/17 05:34:58;;;;;;;4.45;3.28;;;;;;;28.19;33.42;96283.16;5114214;28;20075;-63
2021/08/17 05:37:24;;;;;;;6.40;3.00;;;;;;;28.41;33.11;96283.41;5114080;28;20024;-62
2021/08/17 05:39:51;;;;;;;4.78;2.88;;;;;;;28.56;34.21;96281.59;5114078;28;20084;-63
2021/08/17 05:42:16;;;;;;;4.22;2.72;;;;;;;28.88;33.85;96282.38;5114082;28;20039;-62
2021/08/17 05:44:44;;;;;;;9.68;3.63;;;;;;;29.28;32.81;96285.94;5113967;28;20019;-61
2021/08/17 05:47:11;;;;;;;3.88;2.83;;;;;;;29.61;32.63;96291.00;5113982;28;20019;-63
2021/08/17 05:49:37;;;;;;;4.25;2.83;;;;;;;29.79;32.21;96289.81;5113875;28;20481;-62
2021/08/17 05:52:04;;;;;;;5.43;3.20;;;;;;;29.83;33.58;96291.91;5113905;28;20152;-61
2021/08/17 05:54:30;;;;;;;6.28;3.35;;;;;;;29.82;31.54;96290.25;5113834;28;20022;-61
2021/08/17 05:56:58;;;;;;;5.18;3.22;;;;;;;29.94;32.37;96293.31;5113260;28;20035;-63
2021/08/17 05:59:27;;;;;;;3.88;3.10;;;;;;;30.14;33.74;96292.72;5113751;28;20032;-63
2021/08/17 06:01:58;;;;;;;8.50;2.93;;;;;;;30.53;31.98;96288.00;5113752;28;20050;-62
2021/08/17 06:04:24;;;;;;;3.92;3.30;;;;;;;30.81;31.86;96292.66;5113743;28;20103;-62
2021/08/17 06:06:50;;;;;;;5.35;3.30;;;;;;;31.13;31.24;96301.28;5113631;28;20103;-61
2021/08/17 06:09:19;;;;;;;5.60;2.92;;;;;;;31.48;29.02;96294.28;5113382;28;20043;-63
2021/08/17 06:11:45;;;;;;;5.00;3.20;;;;;;;31.81;28.36;96290.91;5113517;28;20484;-63
2021/08/17 06:14:10;;;;;;;6.85;3.58;;;;;;;32.01;29.31;96291.06;5113544;28;20437;-63
2021/08/17 06:16:36;;;;;;;2.78;2.38;;;;;;;32.00;28.24;96289.38;5113659;28;20055;-63
2021/08/17 06:19:01;;;;;;;4.82;2.97;;;;;;;32.08;28.40;96285.66;5113660;28;20036;-62
2021/08/17 06:21:27;;;;;;;6.00;3.08;;;;;;;32.19;27.47;96281.56;5113581;28;20046;-62
2021/08/17 06:23:52;;;;;;;7.50;3.35;;;;;;;32.40;27.18;96282.44;5113453;28;20049;-63
2021/08/17 06:26:18;;;;;;;3.47;2.88;;;;;;;32.48;26.73;96286.84;5113471;28;20020;-61
2021/08/17 06:28:45;;;;;;;5.65;3.28;;;;;;;32.42;26.17;96283.09;5113361;28;20039;-63
2021/08/17 06:31:13;;;;;;;4.88;2.78;;;;;;;32.59;25.86;96288.16;5113425;28;20077;-61
2021/08/17 06:33:39;;;;;;;4.45;2.63;;;;;;;32.56;25.44;96278.56;5113413;28;20032;-63
2021/08/17 06:36:05;;;;;;;4.68;2.63;;;;;;;32.78;25.49;96273.81;5113410;28;20098;-61
2021/08/17 06:38:31;;;;;;;6.15;3.63;;;;;;;33.02;25.14;96276.94;5113319;28;20411;-61
2021/08/17 06:40:57;;;;;;;6.05;3.25;;;;;;;33.25;25.81;96277.59;5113240;28;20032;-63
2021/08/17 06:43:23;;;;;;;5.72;2.60;;;;;;;33.42;25.19;96278.00;5113327;28;20024;-63
2021/08/17 06:45:49;;;;;;;5.80;3.40;;;;;;;33.65;25.50;96277.53;5113284;28;20020;-61
2021/08/17 06:48:15;;;;;;;4.65;3.40;;;;;;;33.76;25.46;96277.94;5113167;28;20032;-62
2021/08/17 06:50:41;;;;;;;7.75;3.22;;;;;;;33.69;25.45;96283.38;5113130;28;20020;-64
2021/08/17 06:53:07;;;;;;;4.60;2.65;;;;;;;33.60;24.20;96281.94;5113261;28;20407;-62
2021/08/17 06:55:34;;;;;;;3.88;2.70;;;;;;;33.60;24.00;96282.78;5113201;28;20035;-62
2021/08/17 06:57:59;;;;;;;3.33;2.85;;;;;;;33.95;23.43;96283.53;5113220;28;20116;-63
2021/08/17 07:00:25;;;;;;;3.80;2.83;;;;;;;33.71;23.58;96280.47;5113204;28;20489;-61
2021/08/17 07:02:50;;;;;;;5.57;2.88;;;;;;;33.74;22.46;96283.56;5113095;28;20015;-62
2021/08/17 07:05:16;;;;;;;5.35;3.20;;;;;;;33.62;22.49;96277.97;5113090;28;20024;-60
2021/08/17 07:07:41;;;;;;;5.15;3.17;;;;;;;33.81;22.55;96280.84;5113132;28;20019;-63
2021/08/17 07:10:07;;;;;;;2.72;2.45;;;;;;;33.82;21.53;96276.25;5116697;28;20047;-63
2021/08/17 07:12:33;;;;;;;4.35;3.00;;;;;;;33.94;23.50;96274.53;5116983;28;20031;-60
2021/08/17 07:14:59;;;;;;;4.38;3.00;;;;;;;33.79;24.31;96274.81;5116860;28;20023;-60
2021/08/17 07:17:24;;;;;;;5.35;2.42;;;;;;;33.61;23.22;96273.59;5117002;28;20099;-63
2021/08/17 07:19:50;;;;;;;5.10;2.92;;;;;;;33.77;23.19;96271.50;5116735;28;20106;-61
2021/08/17 07:22:15;;;;;;;4.55;2.65;;;;;;;34.13;22.89;96267.41;5116751;28;20023;-63
2021/08/17 07:24:41;;;;;;;3.50;2.55;;;;;;;34.32;22.73;96272.97;5116857;28;20058;-61
2021/08/17 07:27:06;;;;;;;9.43;2.55;;;;;;;34.36;22.36;96267.91;5116592;28;20015;-62
2021/08/17 07:29:33;;;;;;;4.55;2.80;;;;;;;34.39;22.18;96268.31;5116619;28;20035;-60
2021/08/17 07:31:58;;;;;;;6.15;2.38;;;;;;;34.18;22.08;96258.63;5116503;28;20027;-62
2021/08/17 07:34:24;;;;;;;4.93;2.78;;;;;;;33.76;23.45;96265.22;5116493;28;20020;-63
2021/08/17 07:36:49;;;;;;;3.85;2.60;;;;;;;33.50;23.26;96263.41;5098224;28;20019;-63
2021/08/17 07:39:16;;;;;;;5.65;3.22;;;;;;;33.51;24.43;96257.75;5116473;28;20124;-62
2021/08/17 07:41:42;;;;;;;4.82;2.75;;;;;;;33.52;24.41;96253.16;5116373;28;20165;-63
2021/08/17 07:44:08;;;;;;;4.78;3.05;;;;;;;33.74;24.15;96261.06;5116340;28;20028;-63
2021/08/17 07:46:34;;;;;;;4.18;2.78;;;;;;;33.96;24.02;96260.78;5116350;28;20477;-63
2021/08/17 07:49:00;;;;;;;4.95;2.55;;;;;;;34.23;23.46;96261.53;5116173;28;20019;-62
2021/08/17 07:51:28;;;;;;;4.00;2.53;;;;;;;34.38;23.55;96263.94;5116045;28;20431;-61
2021/08/17 07:53:53;;;;;;;4.68;2.92;;;;;;;34.49;23.83;96270.56;5116229;28;20488;-62
2021/08/17 07:56:19;;;;;;;4.35;2.75;;;;;;;34.52;21.93;96261.97;5116075;28;20024;-63
2021/08/17 07:58:45;;;;;;;7.43;3.15;;;;;;;34.31;24.33;96256.91;5116297;28;20473;-63
2021/08/17 08:01:12;;;;;;;5.38;3.13;;;;;;;34.18;24.00;96260.50;5115986;28;20046;-62
2021/08/17 08:03:40;;;;;;;6.00;2.53;;;;;;;34.28;24.70;96266.31;5115885;28;20038;-63
2021/08/17 08:06:06;;;;;;;3.75;2.95;;;;;;;34.25;23.78;96264.03;5115884;28;20103;-62
2021/08/17 08:08:32;;;;;;;3.78;2.72;;;;;;;34.63;24.18;96265.03;5115927;28;20020;-62
2021/08/17 08:10:58;;;;;;;5.38;2.80;;;;;;;34.79;23.08;96267.25;5115609;28;20413;-62
2021/08/17 08:13:24;;;;;;;5.22;3.05;;;;;;;34.75;23.13;96263.31;5115804;28;20034;-60
2021/08/17 08:15:50;;;;;;;4.40;3.20;;;;;;;34.71;24.17;96255.84;5115786;28;20023;-62
2021/08/17 08:18:15;;;;;;;5.80;2.75;;;;;;;34.91;24.20;96259.22;5115746;28;20015;-60
2021/08/17 08:20:42;;;;;;;4.95;2.92;;;;;;;34.54;23.50;96257.16;5115186;28;20020;-59
2021/08/17 08:23:09;;;;;;;5.03;2.70;;;;;;;34.48;23.35;96257.19;5115612;28;20019;-62
2021/08/17 08:25:35;;;;;;;6.55;2.97;;;;;;;34.29;24.21;96259.81;5115534;28;20027;-62
2021/08/17 08:28:01;;;;;;;5.93;2.83;;;;;;;34.25;23.92;96245.03;5115496;28;20028;-59
2021/08/17 08:30:27;;;;;;;4.10;2.78;;;;;;;34.10;24.36;96248.81;5115381;28;20035;-62
2021/08/17 08:32:52;;;;;;;5.32;2.80;;;;;;;34.38;24.44;96246.84;5115363;28;20080;-62
2021/08/17 08:35:18;;;;;;;7.40;3.08;;;;;;;34.61;23.43;96246.25;5115481;28;20024;-62
2021/08/17 08:37:44;;;;;;;5.07;3.03;;;;;;;34.76;23.93;96251.41;5115286;28;20024;-62
2021/08/17 08:40:11;;;;;;;3.65;2.97;;;;;;;34.96;23.80;96250.41;5115127;28;20024;-60
2021/08/17 08:42:36;;;;;;;6.32;3.50;;;;;;;35.10;23.39;96248.44;5115303;28;20485;-62
2021/08/17 08:45:03;;;;;;;6.68;3.00;;;;;;;34.70;23.61;96252.28;5115147;28;20030;-62
2021/08/17 08:47:29;;;;;;;4.28;3.08;;;;;;;34.61;23.88;96245.44;5115204;28;20097;-61
2021/08/17 08:49:55;;;;;;;4.68;3.05;;;;;;;34.67;23.98;96250.00;5114976;28;20057;-60
2021/08/17 08:52:21;;;;;;;7.38;3.25;;;;;;;34.76;23.57;96240.53;5096953;28;20024;-62
2021/08/17 08:54:47;;;;;;;4.53;3.28;;;;;;;34.33;24.56;96244.78;5115056;28;20031;-61
2021/08/17 08:57:13;;;;;;;8.23;3.33;;;;;;;34.22;23.35;96242.75;5114974;28;20431;-61
2021/08/17 08:59:41;;;;;;;4.07;2.72;;;;;;;34.25;24.83;96243.13;5114905;28;20077;-62
2021/08/17 09:02:12;;;;;;;7.25;3.75;;;;;;;34.10;24.71;96237.97;5114824;28;20031;-62
2021/08/17 09:04:38;;;;;;;7.30;3.40;;;;;;;34.01;26.26;96231.16;5114677;28;20019;-61
2021/08/17 09:07:05;;;;;;;6.72;3.72;;;;;;;34.10;25.15;96239.88;5114634;28;20041;-63
2021/08/17 09:09:31;;;;;;;7.30;3.38;;;;;;;34.46;24.59;96233.00;5114280;28;20047;-62
2021/08/17 09:11:59;;;;;;;6.65;3.38;;;;;;;34.47;24.68;96225.69;5114611;28;20030;-60
2021/08/17 09:14:35;;;;;;;6.28;3.50;;;;;;;34.25;24.51;96234.19;5114514;28;20024;-60
2021/08/17 09:17:05;;;;;;;5.68;3.72;;;;;;;34.54;24.27;96232.75;5114481;28;20023;-61
2021/08/17 09:19:44;;;;;;;4.65;3.75;;;;;;;34.49;25.31;96224.41;5114495;28;20016;-62
2021/08/17 09:22:26;;;;;;;4.53;3.22;;;;;;;34.43;25.15;96233.41;5114400;28;20388;-62
2021/08/17 09:24:54;;;;;;;5.13;3.58;;;;;;;34.22;25.10;96226.47;5114592;28;20015;-60
2021/08/17 09:27:25;;;;;;;6.78;3.60;;;;;;;34.51;25.41;96222.31;5114283;28;20366;-60
2021/08/17 09:30:10;;;;;;;9.13;3.72;;;;;;;34.53;25.33;96222.91;5114199;28;20023;-61
2021/08/17 09:32:50;;;;;;;8.52;3.72;;;;;;;34.38;24.43;96223.25;5113783;28;20089;-60
2021/08/17 09:35:18;;;;;;;10.23;3.90;;;;;;;34.39;25.27;96221.34;5114182;28;20072;-62
2021/08/17 09:37:43;;;;;;;9.40;4.10;;;;;;;33.97;26.71;96219.03;5114128;28;20072;-62
2021/08/17 09:40:09;;;;;;;4.82;3.30;;;;;;;33.96;25.93;96215.50;5114069;28;20110;-60
2021/08/17 09:42:35;;;;;;;6.75;4.13;;;;;;;33.93;25.26;96207.81;5114123;28;20377;-63
2021/08/17 09:45:15;;;;;;;9.52;4.03;;;;;;;33.97;25.24;96217.16;5114110;28;20542;-60
2021/08/17 09:47:46;;;;;;;8.02;4.07;;;;;;;33.82;26.56;96206.59;5114031;28;20031;-62
2021/08/17 09:50:28;;;;;;;7.90;3.88;;;;;;;33.65;26.94;96201.66;5114015;28;20500;-62
2021/08/17 09:53:14;;;;;;;6.65;3.85;;;;;;;33.86;25.84;96196.16;5113988;28;20080;-62
2021/08/17 09:55:53;;;;;;;6.35;4.07;;;;;;;33.87;26.23;96198.66;5113837;28;20032;-61
2021/08/17 09:58:25;;;;;;;6.85;3.53;;;;;;;33.83;26.26;96191.97;5113815;28;20027;-61
2021/08/17 10:00:58;;;;;;;4.63;3.35;;;;;;;34.00;26.54;96186.91;5113841;28;20119;-62
2021/08/17 10:03:24;;;;;;;5.13;3.67;;;;;;;33.97;26.18;96183.78;5113781;28;20028;-62
2021/08/17 10:05:50;;;;;;;7.80;3.42;;;;;;;33.98;26.05;96185.47;5113703;28;20076;-62
2021/08/17 10:08:17;;;;;;;5.45;3.60;;;;;;;34.12;25.85;96181.66;5113645;28;20066;-62
2021/08/17 10:10:45;;;;;;;4.70;3.72;;;;;;;34.09;26.32;96183.94;5113465;28;20480;-62
2021/08/17 10:13:13;;;;;;;5.60;4.13;;;;;;;34.12;26.34;96180.78;5095431;28;20031;-62
2021/08/17 10:15:40;;;;;;;5.47;3.90;;;;;;;34.07;25.21;96183.34;5095394;28;20118;-62
2021/08/17 10:18:08;;;;;;;6.45;4.07;;;;;;;33.77;26.31;96173.91;5113444;28;20080;-61
2021/08/17 10:20:36;;;;;;;5.15;3.30;;;;;;;33.84;26.03;96179.28;5113431;28;20016;-62
2021/08/17 10:23:02;;;;;;;11.30;4.13;;;;;;;34.05;25.16;96180.84;5113510;28;20024;-60
2021/08/17 10:25:42;;;;;;;6.22;3.80;;;;;;;34.13;25.50;96169.75;5113622;28;20016;-61
2021/08/17 10:28:28;;;;;;;4.25;3.85;;;;;;;34.10;25.91;96175.56;5113478;28;20024;-61
2021/08/17 10:30:54;;;;;;;6.53;3.78;;;;;;;34.13;26.15;96177.88;5113433;28;20051;-61
2021/08/17 10:34:07;;;;;;;10.32;3.53;;;;;;;34.14;26.09;96171.44;5113338;28;20023;-60
2021/08/17 10:36:37;;;;;;;6.97;3.60;;;;;;;33.98;25.69;96167.31;5105803;28;20485;-62
2021/08/17 10:39:07;;;;;;;7.03;3.88;;;;;;;34.22;24.79;96161.38;5113478;28;20115;-61
2021/08/17 10:41:36;;;;;;;5.32;3.58;;;;;;;34.17;25.53;96159.31;5113413;28;20121;-62
2021/08/17 10:44:08;;;;;;;5.30;3.67;;;;;;;34.01;25.36;96161.44;5117330;28;20072;-61
2021/08/17 10:46:50;;;;;;;7.05;3.72;;;;;;;34.04;25.49;96157.50;5117450;28;20053;-62
2021/08/17 10:49:32;;;;;;;6.57;3.80;;;;;;;33.95;25.36;96154.16;5117396;28;20027;-59
2021/08/17 10:52:05;;;;;;;7.95;3.95;;;;;;;34.02;25.09;96148.72;5117405;28;20034;-61
2021/08/17 10:54:32;;;;;;;6.50;3.83;;;;;;;33.68;25.85;96146.19;5117322;28;20043;-60
2021/08/17 10:57:14;;;;;;;6.13;3.92;;;;;;;33.93;26.10;96147.31;5117249;28;20012;-62
2021/08/17 10:59:41;;;;;;;5.38;3.65;;;;;;;33.77;25.42;96144.88;5117274;28;20032;-62
2021/08/17 11:02:08;;;;;;;3.92;3.53;;;;;;;33.75;25.99;96136.16;5117135;28;20031;-61
2021/08/17 11:04:44;;;;;;;4.65;3.80;;;;;;;33.53;24.88;96132.91;5117240;28;20103;-62
2021/08/17 11:07:32;;;;;;;8.38;3.85;;;;;;;33.39;25.72;96126.69;5117107;28;20022;-61
2021/08/17 11:10:01;;;;;;;5.95;4.05;;;;;;;33.39;24.56;96123.97;5116680;28;20096;-61
2021/08/17 11:12:32;;;;;;;4.20;3.50;;;;;;;33.25;25.80;96118.59;5098742;28;20115;-61
2021/08/17 11:14:58;;;;;;;4.65;3.22;;;;;;;33.25;25.66;96124.03;5116969;28;20020;-62
2021/08/17 11:17:24;;;;;;;8.85;4.03;;;;;;;33.43;25.72;96121.69;5116854;28;20105;-63
2021/08/17 11:19:51;;;;;;;7.13;3.92;;;;;;;33.61;25.65;96112.84;5116762;28;20028;-62
2021/08/17 11:22:21;;;;;;;6.75;3.35;;;;;;;33.76;25.04;96104.44;5116725;28;20461;-63
2021/08/17 11:24:58;;;;;;;5.68;3.35;;;;;;;33.71;24.59;96115.13;5116680;28;20028;-59
2021/08/17 11:27:36;;;;;;;6.93;3.70;;;;;;;33.65;24.47;96109.50;5116851;28;20033;-62
2021/08/17 11:30:15;;;;;;;5.10;3.60;;;;;;;33.41;25.26;96103.75;5116497;28;20110;-62
2021/08/17 11:32:44;;;;;;;4.68;4.03;;;;;;;33.45;24.79;96095.19;5116639;28;20476;-62
2021/08/17 11:35:10;;;;;;;4.57;3.50;;;;;;;33.63;24.59;96103.47;5116449;28;20012;-62